sensor_id;sensor_type;location;lat;lon;timestamp;P1;durP1;ratioP1;P2;durP2;ratioP2
78844;SDS011;68195;50.854;2.860;2023-08-07T00:00:42;4.93;;;2.30;;
78844;SDS011;68195;50.854;2.860;2023-08-07T00:05:36;4.43;;;2.60;;
78844;SDS011;68195;50.854;2.860;2023-08-07T00:10:27;3.95;;;2.20;;
78844;SDS011;68195;50.854;2.860;2023-08-07T00:12:55;5.28;;;2.33;;
78844;SDS011;68195;50.854;2.860;2023-08-07T00:15:22;6.18;;;2.45;;
78844;SDS011;68195;50.854;2.860;2023-08-07T00:20:13;3.80;;;2.33;;
78844;SDS011;68195;50.854;2.860;2023-08-07T00:25:04;4.47;;;2.30;;
78844;SDS011;68195;50.854;2.860;2023-08-07T00:27:32;5.22;;;2.67;;
78844;SDS011;68195;50.854;2.860;2023-08-07T00:29:59;3.53;;;2.42;;
78844;SDS011;68195;50.854;2.860;2023-08-07T00:32:27;4.20;;;2.50;;
78844;SDS011;68195;50.854;2.860;2023-08-07T00:37:18;4.60;;;2.30;;
78844;SDS011;68195;50.854;2.860;2023-08-07T00:42:08;4.90;;;2.30;;
78844;SDS011;68195;50.854;2.860;2023-08-07T00:44:34;3.85;;;2.50;;
78844;SDS011;68195;50.854;2.860;2023-08-07T00:49:25;5.33;;;2.70;;
78844;SDS011;68195;50.854;2.860;2023-08-07T00:51:51;5.20;;;2.17;;
78844;SDS011;68195;50.854;2.860;2023-08-07T00:54:18;6.22;;;2.90;;
78844;SDS011;68195;50.854;2.860;2023-08-07T00:56:44;5.32;;;2.50;;
78844;SDS011;68195;50.854;2.860;2023-08-07T00:59:10;4.82;;;2.72;;
78844;SDS011;68195;50.854;2.860;2023-08-07T01:01:37;6.45;;;3.58;;
78844;SDS011;68195;50.854;2.860;2023-08-07T01:06:30;4.38;;;2.42;;
78844;SDS011;68195;50.854;2.860;2023-08-07T01:08:55;3.10;;;2.28;;
78844;SDS011;68195;50.854;2.860;2023-08-07T01:16:35;4.57;;;2.75;;
78844;SDS011;68195;50.854;2.860;2023-08-07T01:19:01;4.32;;;2.60;;
78844;SDS011;68195;50.854;2.860;2023-08-07T01:21:29;4.05;;;2.63;;
78844;SDS011;68195;50.854;2.860;2023-08-07T01:24:00;4.38;;;2.55;;
78844;SDS011;68195;50.854;2.860;2023-08-07T01:28:57;5.93;;;2.30;;
78844;SDS011;68195;50.854;2.860;2023-08-07T01:31:31;5.45;;;2.80;;
78844;SDS011;68195;50.854;2.860;2023-08-07T01:34:05;7.25;;;2.90;;
78844;SDS011;68195;50.854;2.860;2023-08-07T01:36:38;4.60;;;2.22;;
78844;SDS011;68195;50.854;2.860;2023-08-07T01:39:04;4.55;;;2.70;;
78844;SDS011;68195;50.854;2.860;2023-08-07T01:41:33;3.72;;;2.65;;
78844;SDS011;68195;50.854;2.860;2023-08-07T01:44:00;5.35;;;2.50;;
78844;SDS011;68195;50.854;2.860;2023-08-07T01:46:29;4.35;;;2.38;;
78844;SDS011;68195;50.854;2.860;2023-08-07T01:51:19;4.87;;;2.40;;
78844;SDS011;68195;50.854;2.860;2023-08-07T01:53:47;3.75;;;2.45;;
78844;SDS011;68195;50.854;2.860;2023-08-07T01:56:17;4.15;;;2.88;;
78844;SDS011;68195;50.854;2.860;2023-08-07T01:58:42;5.63;;;2.72;;
78844;SDS011;68195;50.854;2.860;2023-08-07T02:03:35;5.85;;;3.13;;
78844;SDS011;68195;50.854;2.860;2023-08-07T02:08:27;6.75;;;2.78;;
78844;SDS011;68195;50.854;2.860;2023-08-07T02:13:17;7.37;;;3.03;;
78844;SDS011;68195;50.854;2.860;2023-08-07T02:18:08;5.83;;;2.83;;
78844;SDS011;68195;50.854;2.860;2023-08-07T02:22:59;5.90;;;2.60;;
78844;SDS011;68195;50.854;2.860;2023-08-07T02:25:26;4.28;;;2.45;;
78844;SDS011;68195;50.854;2.860;2023-08-07T02:27:54;6.28;;;2.58;;
78844;SDS011;68195;50.854;2.860;2023-08-07T02:30:22;4.15;;;2.90;;
78844;SDS011;68195;50.854;2.860;2023-08-07T02:35:14;5.35;;;2.88;;
78844;SDS011;68195;50.854;2.860;2023-08-07T02:37:42;4.82;;;2.92;;
78844;SDS011;68195;50.854;2.860;2023-08-07T02:40:10;6.40;;;2.75;;
78844;SDS011;68195;50.854;2.860;2023-08-07T02:42:38;5.15;;;2.70;;
78844;SDS011;68195;50.854;2.860;2023-08-07T02:47:32;4.13;;;2.72;;
78844;SDS011;68195;50.854;2.860;2023-08-07T02:52:22;4.77;;;3.17;;
78844;SDS011;68195;50.854;2.860;2023-08-07T02:54:50;4.88;;;2.58;;
78844;SDS011;68195;50.854;2.860;2023-08-07T02:59:45;6.28;;;2.83;;
78844;SDS011;68195;50.854;2.860;2023-08-07T03:04:36;4.82;;;2.72;;
78844;SDS011;68195;50.854;2.860;2023-08-07T03:09:29;6.90;;;2.50;;
78844;SDS011;68195;50.854;2.860;2023-08-07T03:14:20;5.30;;;2.28;;
78844;SDS011;68195;50.854;2.860;2023-08-07T03:19:11;4.17;;;2.83;;
78844;SDS011;68195;50.854;2.860;2023-08-07T03:21:41;5.18;;;2.83;;
78844;SDS011;68195;50.854;2.860;2023-08-07T03:26:33;5.38;;;2.95;;
78844;SDS011;68195;50.854;2.860;2023-08-07T03:31:23;7.03;;;3.20;;
78844;SDS011;68195;50.854;2.860;2023-08-07T03:33:51;7.65;;;3.13;;
78844;SDS011;68195;50.854;2.860;2023-08-07T03:38:42;5.20;;;3.17;;
78844;SDS011;68195;50.854;2.860;2023-08-07T03:41:09;5.28;;;2.88;;
78844;SDS011;68195;50.854;2.860;2023-08-07T03:46:00;9.20;;;4.30;;
78844;SDS011;68195;50.854;2.860;2023-08-07T03:50:51;4.10;;;2.50;;
78844;SDS011;68195;50.854;2.860;2023-08-07T03:53:28;4.53;;;2.92;;
78844;SDS011;68195;50.854;2.860;2023-08-07T03:55:54;5.70;;;3.03;;
78844;SDS011;68195;50.854;2.860;2023-08-07T04:00:44;5.60;;;3.00;;
78844;SDS011;68195;50.854;2.860;2023-08-07T04:05:35;5.07;;;3.03;;
78844;SDS011;68195;50.854;2.860;2023-08-07T04:08:03;4.60;;;2.75;;
78844;SDS011;68195;50.854;2.860;2023-08-07T04:12:56;3.65;;;3.00;;
78844;SDS011;68195;50.854;2.860;2023-08-07T04:17:47;3.93;;;2.60;;
78844;SDS011;68195;50.854;2.860;2023-08-07T04:22:38;8.20;;;3.33;;
78844;SDS011;68195;50.854;2.860;2023-08-07T04:25:05;5.35;;;3.17;;
78844;SDS011;68195;50.854;2.860;2023-08-07T04:29:56;5.50;;;3.23;;
78844;SDS011;68195;50.854;2.860;2023-08-07T04:32:22;4.93;;;3.35;;
78844;SDS011;68195;50.854;2.860;2023-08-07T04:37:13;5.00;;;3.05;;
78844;SDS011;68195;50.854;2.860;2023-08-07T04:42:06;4.75;;;3.50;;
78844;SDS011;68195;50.854;2.860;2023-08-07T04:46:57;7.90;;;3.30;;
78844;SDS011;68195;50.854;2.860;2023-08-07T04:51:50;7.93;;;3.00;;
78844;SDS011;68195;50.854;2.860;2023-08-07T04:56:41;4.73;;;3.10;;
78844;SDS011;68195;50.854;2.860;2023-08-07T04:59:11;7.32;;;3.30;;
78844;SDS011;68195;50.854;2.860;2023-08-07T05:01:37;4.32;;;3.05;;
78844;SDS011;68195;50.854;2.860;2023-08-07T05:04:03;6.63;;;3.83;;
78844;SDS011;68195;50.854;2.860;2023-08-07T05:06:30;6.25;;;3.58;;
78844;SDS011;68195;50.854;2.860;2023-08-07T05:11:23;6.53;;;3.47;;
78844;SDS011;68195;50.854;2.860;2023-08-07T05:16:14;8.60;;;3.20;;
78844;SDS011;68195;50.854;2.860;2023-08-07T05:18:43;5.13;;;3.47;;
78844;SDS011;68195;50.854;2.860;2023-08-07T05:23:37;4.72;;;3.10;;
78844;SDS011;68195;50.854;2.860;2023-08-07T05:28:27;5.07;;;3.30;;
78844;SDS011;68195;50.854;2.860;2023-08-07T05:33:18;5.03;;;3.20;;
78844;SDS011;68195;50.854;2.860;2023-08-07T05:35:48;5.18;;;3.22;;
78844;SDS011;68195;50.854;2.860;2023-08-07T05:38:17;5.45;;;3.65;;
78844;SDS011;68195;50.854;2.860;2023-08-07T05:43:08;5.13;;;3.20;;
78844;SDS011;68195;50.854;2.860;2023-08-07T05:47:59;4.20;;;3.27;;
78844;SDS011;68195;50.854;2.860;2023-08-07T05:50:27;6.93;;;3.63;;
78844;SDS011;68195;50.854;2.860;2023-08-07T05:52:54;4.43;;;2.95;;
78844;SDS011;68195;50.854;2.860;2023-08-07T05:55:22;5.70;;;3.60;;
78844;SDS011;68195;50.854;2.860;2023-08-07T06:00:14;3.95;;;2.92;;
78844;SDS011;68195;50.854;2.860;2023-08-07T06:02:44;9.07;;;3.70;;
78844;SDS011;68195;50.854;2.860;2023-08-07T06:05:12;4.25;;;3.08;;
78844;SDS011;68195;50.854;2.860;2023-08-07T06:07:41;5.18;;;3.33;;
78844;SDS011;68195;50.854;2.860;2023-08-07T06:12:34;7.38;;;3.65;;
78844;SDS011;68195;50.854;2.860;2023-08-07T06:15:04;4.50;;;3.20;;
78844;SDS011;68195;50.854;2.860;2023-08-07T06:17:30;8.65;;;3.33;;
78844;SDS011;68195;50.854;2.860;2023-08-07T06:19:58;4.88;;;2.95;;
78844;SDS011;68195;50.854;2.860;2023-08-07T06:22:24;4.78;;;3.10;;
78844;SDS011;68195;50.854;2.860;2023-08-07T06:27:17;4.60;;;3.03;;
78844;SDS011;68195;50.854;2.860;2023-08-07T06:29:45;5.75;;;3.50;;
78844;SDS011;68195;50.854;2.860;2023-08-07T06:34:36;8.73;;;3.73;;
78844;SDS011;68195;50.854;2.860;2023-08-07T06:37:05;4.68;;;3.25;;
78844;SDS011;68195;50.854;2.860;2023-08-07T06:39:30;6.10;;;3.00;;
78844;SDS011;68195;50.854;2.860;2023-08-07T06:41:58;7.00;;;3.22;;
78844;SDS011;68195;50.854;2.860;2023-08-07T06:44:25;5.93;;;3.17;;
78844;SDS011;68195;50.854;2.860;2023-08-07T06:49:21;6.35;;;2.97;;
78844;SDS011;68195;50.854;2.860;2023-08-07T06:51:48;5.35;;;3.08;;
78844;SDS011;68195;50.854;2.860;2023-08-07T06:54:16;5.20;;;2.88;;
78844;SDS011;68195;50.854;2.860;2023-08-07T06:59:08;3.95;;;2.45;;
78844;SDS011;68195;50.854;2.860;2023-08-07T07:01:36;3.88;;;2.22;;
78844;SDS011;68195;50.854;2.860;2023-08-07T07:04:04;6.88;;;2.33;;
78844;SDS011;68195;50.854;2.860;2023-08-07T07:06:33;6.07;;;2.40;;
78844;SDS011;68195;50.854;2.860;2023-08-07T07:08:58;4.65;;;1.90;;
78844;SDS011;68195;50.854;2.860;2023-08-07T07:11:24;4.38;;;2.75;;
78844;SDS011;68195;50.854;2.860;2023-08-07T07:13:52;7.18;;;3.03;;
78844;SDS011;68195;50.854;2.860;2023-08-07T07:16:18;4.15;;;2.20;;
78844;SDS011;68195;50.854;2.860;2023-08-07T07:18:50;5.63;;;2.75;;
78844;SDS011;68195;50.854;2.860;2023-08-07T07:21:18;4.85;;;2.30;;
78844;SDS011;68195;50.854;2.860;2023-08-07T07:23:48;5.50;;;2.38;;
78844;SDS011;68195;50.854;2.860;2023-08-07T07:26:14;4.72;;;2.20;;
78844;SDS011;68195;50.854;2.860;2023-08-07T07:28:39;5.53;;;2.30;;
78844;SDS011;68195;50.854;2.860;2023-08-07T07:31:06;6.38;;;2.83;;
78844;SDS011;68195;50.854;2.860;2023-08-07T07:33:36;5.47;;;2.03;;
78844;SDS011;68195;50.854;2.860;2023-08-07T07:36:04;3.13;;;1.90;;
78844;SDS011;68195;50.854;2.860;2023-08-07T07:38:32;3.00;;;1.85;;
78844;SDS011;68195;50.854;2.860;2023-08-07T07:41:00;3.40;;;1.80;;
78844;SDS011;68195;50.854;2.860;2023-08-07T07:43:25;5.93;;;2.25;;
78844;SDS011;68195;50.854;2.860;2023-08-07T07:45:50;5.05;;;1.95;;
78844;SDS011;68195;50.854;2.860;2023-08-07T07:48:16;2.53;;;1.60;;
78844;SDS011;68195;50.854;2.860;2023-08-07T07:50:43;4.72;;;1.90;;
78844;SDS011;68195;50.854;2.860;2023-08-07T07:53:11;3.65;;;2.10;;
78844;SDS011;68195;50.854;2.860;2023-08-07T07:55:39;3.05;;;1.90;;
78844;SDS011;68195;50.854;2.860;2023-08-07T07:58:11;4.53;;;2.22;;
78844;SDS011;68195;50.854;2.860;2023-08-07T08:00:36;7.40;;;2.30;;
78844;SDS011;68195;50.854;2.860;2023-08-07T08:03:02;6.20;;;2.40;;
78844;SDS011;68195;50.854;2.860;2023-08-07T08:05:30;4.13;;;2.20;;
78844;SDS011;68195;50.854;2.860;2023-08-07T08:07:57;5.57;;;2.42;;
78844;SDS011;68195;50.854;2.860;2023-08-07T08:10:23;5.65;;;2.90;;
78844;SDS011;68195;50.854;2.860;2023-08-07T08:12:50;5.70;;;2.75;;
78844;SDS011;68195;50.854;2.860;2023-08-07T08:15:19;4.47;;;2.88;;
78844;SDS011;68195;50.854;2.860;2023-08-07T08:17:47;6.68;;;3.83;;
78844;SDS011;68195;50.854;2.860;2023-08-07T08:20:17;7.57;;;4.10;;
78844;SDS011;68195;50.854;2.860;2023-08-07T08:22:46;3.88;;;2.85;;
78844;SDS011;68195;50.854;2.860;2023-08-07T08:25:14;5.75;;;2.72;;
78844;SDS011;68195;50.854;2.860;2023-08-07T08:27:44;3.60;;;2.67;;
78844;SDS011;68195;50.854;2.860;2023-08-07T08:30:10;4.35;;;2.50;;
78844;SDS011;68195;50.854;2.860;2023-08-07T08:32:37;4.55;;;2.20;;
78844;SDS011;68195;50.854;2.860;2023-08-07T08:35:04;4.47;;;2.55;;
78844;SDS011;68195;50.854;2.860;2023-08-07T08:37:29;4.63;;;2.20;;
78844;SDS011;68195;50.854;2.860;2023-08-07T08:39:55;3.55;;;2.30;;
78844;SDS011;68195;50.854;2.860;2023-08-07T08:42:23;4.32;;;1.98;;
78844;SDS011;68195;50.854;2.860;2023-08-07T08:44:52;3.15;;;2.40;;
78844;SDS011;68195;50.854;2.860;2023-08-07T08:47:22;3.72;;;2.13;;
78844;SDS011;68195;50.854;2.860;2023-08-07T08:49:57;5.07;;;2.42;;
78844;SDS011;68195;50.854;2.860;2023-08-07T08:52:31;3.80;;;2.72;;
78844;SDS011;68195;50.854;2.860;2023-08-07T08:54:59;3.63;;;2.60;;
78844;SDS011;68195;50.854;2.860;2023-08-07T08:57:26;5.20;;;2.30;;
78844;SDS011;68195;50.854;2.860;2023-08-07T08:59:54;5.18;;;2.40;;
78844;SDS011;68195;50.854;2.860;2023-08-07T09:02:20;6.07;;;2.35;;
78844;SDS011;68195;50.854;2.860;2023-08-07T09:04:48;3.13;;;2.30;;
78844;SDS011;68195;50.854;2.860;2023-08-07T09:07:16;2.80;;;1.98;;
78844;SDS011;68195;50.854;2.860;2023-08-07T09:09:45;2.50;;;2.00;;
78844;SDS011;68195;50.854;2.860;2023-08-07T09:12:20;5.15;;;2.38;;
78844;SDS011;68195;50.854;2.860;2023-08-07T09:14:52;3.08;;;2.00;;
78844;SDS011;68195;50.854;2.860;2023-08-07T09:17:24;3.17;;;2.00;;
78844;SDS011;68195;50.854;2.860;2023-08-07T09:19:54;4.10;;;2.15;;
78844;SDS011;68195;50.854;2.860;2023-08-07T09:22:20;3.30;;;1.88;;
78844;SDS011;68195;50.854;2.860;2023-08-07T09:24:46;3.10;;;1.77;;
78844;SDS011;68195;50.854;2.860;2023-08-07T09:27:11;3.50;;;1.75;;
78844;SDS011;68195;50.854;2.860;2023-08-07T09:29:40;3.85;;;1.95;;
78844;SDS011;68195;50.854;2.860;2023-08-07T09:32:12;4.65;;;2.10;;
78844;SDS011;68195;50.854;2.860;2023-08-07T09:34:43;3.10;;;2.15;;
78844;SDS011;68195;50.854;2.860;2023-08-07T09:37:11;4.75;;;2.42;;
78844;SDS011;68195;50.854;2.860;2023-08-07T09:39:36;4.53;;;2.60;;
78844;SDS011;68195;50.854;2.860;2023-08-07T09:42:20;5.45;;;2.22;;
78844;SDS011;68195;50.854;2.860;2023-08-07T09:47:14;4.38;;;2.65;;
78844;SDS011;68195;50.854;2.860;2023-08-07T09:49:43;3.97;;;2.67;;
78844;SDS011;68195;50.854;2.860;2023-08-07T09:52:13;5.20;;;2.47;;
78844;SDS011;68195;50.854;2.860;2023-08-07T09:54:40;3.45;;;2.22;;
78844;SDS011;68195;50.854;2.860;2023-08-07T09:57:06;4.60;;;2.40;;
78844;SDS011;68195;50.854;2.860;2023-08-07T09:59:33;4.50;;;2.20;;
78844;SDS011;68195;50.854;2.860;2023-08-07T10:02:02;4.65;;;2.53;;
78844;SDS011;68195;50.854;2.860;2023-08-07T10:04:29;4.60;;;2.42;;
78844;SDS011;68195;50.854;2.860;2023-08-07T10:06:56;2.92;;;1.80;;
78844;SDS011;68195;50.854;2.860;2023-08-07T10:09:22;3.58;;;1.83;;
78844;SDS011;68195;50.854;2.860;2023-08-07T10:11:54;2.67;;;1.45;;
78844;SDS011;68195;50.854;2.860;2023-08-07T10:14:20;2.28;;;1.52;;
78844;SDS011;68195;50.854;2.860;2023-08-07T10:16:49;1.80;;;1.23;;
78844;SDS011;68195;50.854;2.860;2023-08-07T10:19:16;3.25;;;1.50;;
78844;SDS011;68195;50.854;2.860;2023-08-07T10:21:42;4.00;;;1.60;;
78844;SDS011;68195;50.854;2.860;2023-08-07T10:24:09;2.58;;;1.40;;
78844;SDS011;68195;50.854;2.860;2023-08-07T10:26:40;2.75;;;1.63;;
78844;SDS011;68195;50.854;2.860;2023-08-07T10:29:13;3.72;;;1.50;;
78844;SDS011;68195;50.854;2.860;2023-08-07T10:31:44;2.58;;;1.40;;
78844;SDS011;68195;50.854;2.860;2023-08-07T10:34:10;3.35;;;1.33;;
78844;SDS011;68195;50.854;2.860;2023-08-07T10:36:39;3.53;;;1.60;;
78844;SDS011;68195;50.854;2.860;2023-08-07T10:39:10;3.50;;;1.58;;
78844;SDS011;68195;50.854;2.860;2023-08-07T10:41:41;4.45;;;1.90;;
78844;SDS011;68195;50.854;2.860;2023-08-07T10:44:18;2.25;;;1.52;;
78844;SDS011;68195;50.854;2.860;2023-08-07T10:46:47;2.47;;;1.60;;
78844;SDS011;68195;50.854;2.860;2023-08-07T10:52:09;2.55;;;1.30;;
78844;SDS011;68195;50.854;2.860;2023-08-07T10:54:46;3.50;;;1.60;;
78844;SDS011;68195;50.854;2.860;2023-08-07T10:57:15;2.55;;;1.48;;
78844;SDS011;68195;50.854;2.860;2023-08-07T11:00:05;4.00;;;1.70;;
78844;SDS011;68195;50.854;2.860;2023-08-07T11:02:37;1.70;;;1.40;;
78844;SDS011;68195;50.854;2.860;2023-08-07T11:05:05;3.42;;;1.33;;
78844;SDS011;68195;50.854;2.860;2023-08-07T11:07:31;2.10;;;1.65;;
78844;SDS011;68195;50.854;2.860;2023-08-07T11:09:57;2.45;;;1.67;;
78844;SDS011;68195;50.854;2.860;2023-08-07T11:12:26;1.45;;;1.20;;
78844;SDS011;68195;50.854;2.860;2023-08-07T11:14:57;1.92;;;1.48;;
78844;SDS011;68195;50.854;2.860;2023-08-07T11:17:28;2.40;;;1.90;;
78844;SDS011;68195;50.854;2.860;2023-08-07T11:19:56;3.95;;;1.92;;
78844;SDS011;68195;50.854;2.860;2023-08-07T11:22:24;2.53;;;1.70;;
78844;SDS011;68195;50.854;2.860;2023-08-07T11:24:52;3.55;;;1.67;;
78844;SDS011;68195;50.854;2.860;2023-08-07T11:27:23;4.82;;;1.70;;
78844;SDS011;68195;50.854;2.860;2023-08-07T11:29:48;3.42;;;1.45;;
78844;SDS011;68195;50.854;2.860;2023-08-07T11:32:18;3.85;;;1.77;;
78844;SDS011;68195;50.854;2.860;2023-08-07T11:34:48;2.28;;;1.48;;
78844;SDS011;68195;50.854;2.860;2023-08-07T11:37:15;2.47;;;1.40;;
78844;SDS011;68195;50.854;2.860;2023-08-07T11:39:42;1.88;;;1.50;;
78844;SDS011;68195;50.854;2.860;2023-08-07T11:42:12;2.42;;;1.40;;
78844;SDS011;68195;50.854;2.860;2023-08-07T11:44:40;1.98;;;1.38;;
78844;SDS011;68195;50.854;2.860;2023-08-07T11:47:05;3.50;;;1.50;;
78844;SDS011;68195;50.854;2.860;2023-08-07T11:49:33;4.30;;;1.35;;
78844;SDS011;68195;50.854;2.860;2023-08-07T11:52:01;2.10;;;1.80;;
78844;SDS011;68195;50.854;2.860;2023-08-07T11:54:30;2.47;;;1.58;;
78844;SDS011;68195;50.854;2.860;2023-08-07T11:56:55;2.97;;;1.50;;
78844;SDS011;68195;50.854;2.860;2023-08-07T11:59:21;1.65;;;1.23;;
78844;SDS011;68195;50.854;2.860;2023-08-07T12:01:50;4.68;;;1.17;;
78844;SDS011;68195;50.854;2.860;2023-08-07T12:04:16;2.22;;;1.40;;
78844;SDS011;68195;50.854;2.860;2023-08-07T12:06:52;1.67;;;1.10;;
78844;SDS011;68195;50.854;2.860;2023-08-07T12:09:19;2.10;;;1.08;;
78844;SDS011;68195;50.854;2.860;2023-08-07T12:11:47;1.52;;;0.95;;
78844;SDS011;68195;50.854;2.860;2023-08-07T12:14:16;3.63;;;1.52;;
78844;SDS011;68195;50.854;2.860;2023-08-07T12:16:43;1.58;;;1.10;;
78844;SDS011;68195;50.854;2.860;2023-08-07T12:19:12;2.13;;;1.33;;
78844;SDS011;68195;50.854;2.860;2023-08-07T12:21:39;2.15;;;1.30;;
78844;SDS011;68195;50.854;2.860;2023-08-07T12:24:06;2.67;;;1.50;;
78844;SDS011;68195;50.854;2.860;2023-08-07T12:26:32;2.50;;;1.42;;
78844;SDS011;68195;50.854;2.860;2023-08-07T12:29:00;1.88;;;1.40;;
78844;SDS011;68195;50.854;2.860;2023-08-07T12:31:30;3.75;;;1.77;;
78844;SDS011;68195;50.854;2.860;2023-08-07T12:33:58;2.55;;;1.40;;
78844;SDS011;68195;50.854;2.860;2023-08-07T12:36:24;1.65;;;1.17;;
78844;SDS011;68195;50.854;2.860;2023-08-07T12:38:51;2.83;;;1.50;;
78844;SDS011;68195;50.854;2.860;2023-08-07T12:41:17;1.40;;;1.05;;
78844;SDS011;68195;50.854;2.860;2023-08-07T12:43:42;2.40;;;1.20;;
78844;SDS011;68195;50.854;2.860;2023-08-07T12:46:08;3.45;;;1.20;;
78844;SDS011;68195;50.854;2.860;2023-08-07T12:48:38;2.30;;;1.30;;
78844;SDS011;68195;50.854;2.860;2023-08-07T12:51:06;2.05;;;1.20;;
78844;SDS011;68195;50.854;2.860;2023-08-07T12:53:34;3.92;;;1.38;;
78844;SDS011;68195;50.854;2.860;2023-08-07T12:56:01;2.03;;;1.42;;
78844;SDS011;68195;50.854;2.860;2023-08-07T12:58:28;2.10;;;1.23;;
78844;SDS011;68195;50.854;2.860;2023-08-07T13:00:54;2.92;;;1.70;;
78844;SDS011;68195;50.854;2.860;2023-08-07T13:03:19;2.08;;;1.40;;
78844;SDS011;68195;50.854;2.860;2023-08-07T13:05:45;4.28;;;1.50;;
78844;SDS011;68195;50.854;2.860;2023-08-07T13:08:11;2.30;;;1.40;;
78844;SDS011;68195;50.854;2.860;2023-08-07T13:10:36;2.08;;;1.25;;
78844;SDS011;68195;50.854;2.860;2023-08-07T13:13:06;2.75;;;1.20;;
78844;SDS011;68195;50.854;2.860;2023-08-07T13:15:32;1.77;;;1.30;;
78844;SDS011;68195;50.854;2.860;2023-08-07T13:17:57;1.48;;;1.30;;
78844;SDS011;68195;50.854;2.860;2023-08-07T13:20:30;2.42;;;1.40;;
78844;SDS011;68195;50.854;2.860;2023-08-07T13:22:59;1.60;;;1.27;;
78844;SDS011;68195;50.854;2.860;2023-08-07T13:25:25;2.20;;;1.38;;
78844;SDS011;68195;50.854;2.860;2023-08-07T13:27:55;3.80;;;1.40;;
78844;SDS011;68195;50.854;2.860;2023-08-07T13:30:21;3.90;;;1.60;;
78844;SDS011;68195;50.854;2.860;2023-08-07T13:32:46;2.50;;;1.40;;
78844;SDS011;68195;50.854;2.860;2023-08-07T13:35:14;2.40;;;1.40;;
78844;SDS011;68195;50.854;2.860;2023-08-07T13:37:39;2.88;;;1.60;;
78844;SDS011;68195;50.854;2.860;2023-08-07T13:40:05;2.90;;;1.83;;
78844;SDS011;68195;50.854;2.860;2023-08-07T13:42:32;3.65;;;1.60;;
78844;SDS011;68195;50.854;2.860;2023-08-07T13:45:00;2.05;;;1.40;;
78844;SDS011;68195;50.854;2.860;2023-08-07T13:47:28;3.35;;;1.30;;
78844;SDS011;68195;50.854;2.860;2023-08-07T13:49:53;2.83;;;1.35;;
78844;SDS011;68195;50.854;2.860;2023-08-07T13:52:19;3.30;;;1.40;;
78844;SDS011;68195;50.854;2.860;2023-08-07T13:54:45;2.33;;;1.30;;
78844;SDS011;68195;50.854;2.860;2023-08-07T13:57:10;2.35;;;1.50;;
78844;SDS011;68195;50.854;2.860;2023-08-07T13:59:36;2.47;;;1.58;;
78844;SDS011;68195;50.854;2.860;2023-08-07T14:02:04;3.92;;;1.70;;
78844;SDS011;68195;50.854;2.860;2023-08-07T14:04:29;3.08;;;1.30;;
78844;SDS011;68195;50.854;2.860;2023-08-07T14:06:55;2.25;;;1.50;;
78844;SDS011;68195;50.854;2.860;2023-08-07T14:09:23;2.95;;;1.40;;
78844;SDS011;68195;50.854;2.860;2023-08-07T14:11:49;4.60;;;1.95;;
78844;SDS011;68195;50.854;2.860;2023-08-07T14:14:15;2.38;;;1.40;;
78844;SDS011;68195;50.854;2.860;2023-08-07T14:16:40;3.13;;;1.35;;
78844;SDS011;68195;50.854;2.860;2023-08-07T14:19:06;2.88;;;1.88;;
78844;SDS011;68195;50.854;2.860;2023-08-07T14:21:33;2.45;;;1.67;;
78844;SDS011;68195;50.854;2.860;2023-08-07T14:23:59;2.95;;;1.48;;
78844;SDS011;68195;50.854;2.860;2023-08-07T14:26:25;2.72;;;1.30;;
78844;SDS011;68195;50.854;2.860;2023-08-07T14:28:50;2.90;;;1.58;;
78844;SDS011;68195;50.854;2.860;2023-08-07T14:31:16;3.53;;;1.90;;
78844;SDS011;68195;50.854;2.860;2023-08-07T14:33:44;2.83;;;1.35;;
78844;SDS011;68195;50.854;2.860;2023-08-07T14:36:11;2.70;;;1.50;;
78844;SDS011;68195;50.854;2.860;2023-08-07T14:38:37;1.55;;;1.27;;
78844;SDS011;68195;50.854;2.860;2023-08-07T14:41:02;4.05;;;1.75;;
78844;SDS011;68195;50.854;2.860;2023-08-07T14:43:30;3.30;;;1.42;;
78844;SDS011;68195;50.854;2.860;2023-08-07T14:45:58;3.35;;;1.45;;
78844;SDS011;68195;50.854;2.860;2023-08-07T14:48:24;5.57;;;1.70;;
78844;SDS011;68195;50.854;2.860;2023-08-07T14:50:51;4.40;;;1.80;;
78844;SDS011;68195;50.854;2.860;2023-08-07T14:53:21;2.15;;;1.27;;
78844;SDS011;68195;50.854;2.860;2023-08-07T14:55:50;3.83;;;1.40;;
78844;SDS011;68195;50.854;2.860;2023-08-07T14:58:17;4.43;;;1.50;;
78844;SDS011;68195;50.854;2.860;2023-08-07T15:00:45;2.30;;;1.50;;
78844;SDS011;68195;50.854;2.860;2023-08-07T15:03:11;3.05;;;1.20;;
78844;SDS011;68195;50.854;2.860;2023-08-07T15:05:36;2.10;;;1.30;;
78844;SDS011;68195;50.854;2.860;2023-08-07T15:08:04;1.95;;;1.20;;
78844;SDS011;68195;50.854;2.860;2023-08-07T15:10:32;2.78;;;1.48;;
78844;SDS011;68195;50.854;2.860;2023-08-07T15:12:59;3.42;;;1.35;;
78844;SDS011;68195;50.854;2.860;2023-08-07T15:15:25;2.17;;;1.48;;
78844;SDS011;68195;50.854;2.860;2023-08-07T15:17:50;3.13;;;1.33;;
78844;SDS011;68195;50.854;2.860;2023-08-07T15:20:16;1.65;;;1.33;;
78844;SDS011;68195;50.854;2.860;2023-08-07T15:22:41;2.80;;;1.30;;
78844;SDS011;68195;50.854;2.860;2023-08-07T15:25:14;2.72;;;1.30;;
78844;SDS011;68195;50.854;2.860;2023-08-07T15:27:39;2.03;;;1.33;;
78844;SDS011;68195;50.854;2.860;2023-08-07T15:30:05;2.85;;;1.50;;
78844;SDS011;68195;50.854;2.860;2023-08-07T15:32:31;2.92;;;1.45;;
78844;SDS011;68195;50.854;2.860;2023-08-07T15:34:56;2.70;;;1.30;;
78844;SDS011;68195;50.854;2.860;2023-08-07T15:37:22;2.10;;;1.30;;
78844;SDS011;68195;50.854;2.860;2023-08-07T15:39:47;3.05;;;1.20;;
78844;SDS011;68195;50.854;2.860;2023-08-07T15:42:15;2.42;;;1.25;;
78844;SDS011;68195;50.854;2.860;2023-08-07T15:44:40;2.05;;;1.20;;
78844;SDS011;68195;50.854;2.860;2023-08-07T15:47:10;2.15;;;1.30;;
78844;SDS011;68195;50.854;2.860;2023-08-07T15:49:36;1.58;;;1.35;;
78844;SDS011;68195;50.854;2.860;2023-08-07T15:52:03;2.70;;;1.27;;
78844;SDS011;68195;50.854;2.860;2023-08-07T15:54:29;2.15;;;1.50;;
78844;SDS011;68195;50.854;2.860;2023-08-07T15:56:54;3.53;;;1.23;;
78844;SDS011;68195;50.854;2.860;2023-08-07T15:59:22;2.17;;;1.50;;
78844;SDS011;68195;50.854;2.860;2023-08-07T16:01:47;4.07;;;1.20;;
78844;SDS011;68195;50.854;2.860;2023-08-07T16:04:13;2.80;;;1.35;;
78844;SDS011;68195;50.854;2.860;2023-08-07T16:06:38;2.08;;;1.00;;
78844;SDS011;68195;50.854;2.860;2023-08-07T16:09:04;2.00;;;1.10;;
78844;SDS011;68195;50.854;2.860;2023-08-07T16:11:31;2.42;;;1.40;;
78844;SDS011;68195;50.854;2.860;2023-08-07T16:13:56;3.03;;;1.33;;
78844;SDS011;68195;50.854;2.860;2023-08-07T16:16:27;1.88;;;1.30;;
78844;SDS011;68195;50.854;2.860;2023-08-07T16:18:54;3.88;;;1.35;;
78844;SDS011;68195;50.854;2.860;2023-08-07T16:21:20;2.85;;;1.35;;
78844;SDS011;68195;50.854;2.860;2023-08-07T16:23:47;5.10;;;1.85;;
78844;SDS011;68195;50.854;2.860;2023-08-07T16:26:15;1.90;;;1.70;;
78844;SDS011;68195;50.854;2.860;2023-08-07T16:28:40;2.60;;;1.10;;
78844;SDS011;68195;50.854;2.860;2023-08-07T16:31:08;1.75;;;1.00;;
78844;SDS011;68195;50.854;2.860;2023-08-07T16:33:34;1.48;;;1.17;;
78844;SDS011;68195;50.854;2.860;2023-08-07T16:35:59;2.72;;;1.27;;
78844;SDS011;68195;50.854;2.860;2023-08-07T16:38:25;3.22;;;1.30;;
78844;SDS011;68195;50.854;2.860;2023-08-07T16:40:51;2.47;;;1.38;;
78844;SDS011;68195;50.854;2.860;2023-08-07T16:43:16;3.53;;;1.40;;
78844;SDS011;68195;50.854;2.860;2023-08-07T16:45:42;1.90;;;1.30;;
78844;SDS011;68195;50.854;2.860;2023-08-07T16:48:07;3.03;;;1.65;;
78844;SDS011;68195;50.854;2.860;2023-08-07T16:50:32;4.18;;;1.60;;
78844;SDS011;68195;50.854;2.860;2023-08-07T16:53:00;4.47;;;1.30;;
78844;SDS011;68195;50.854;2.860;2023-08-07T16:55:28;2.92;;;1.45;;
78844;SDS011;68195;50.854;2.860;2023-08-07T16:57:53;2.13;;;1.35;;
78844;SDS011;68195;50.854;2.860;2023-08-07T17:00:21;2.40;;;1.70;;
78844;SDS011;68195;50.854;2.860;2023-08-07T17:02:49;3.17;;;1.45;;
78844;SDS011;68195;50.854;2.860;2023-08-07T17:05:14;2.83;;;1.33;;